Flight Track Log - Related Links

Times and Time Zones

All times are in EST time to prevent confusion due to time zone crossing. See the N690TW flight status page for this flight to view local times or setup timezone preferences in your user account.

Time Position Orientation Groundspeed Altitude Reporting Facility
EST Latitude Longitude Course Direction KTS MPH feet Rate Location/Type
Sun 02:40:49 PM 40.5278 -106.7681 90° East 204 235 13,900  Level Denver Center
Sun 02:41:51 PM 40.5217 -106.6869 96° East 217 250 15,500 1,258 Climbing Denver Center
Sun 02:42:53 PM 40.5097 -106.6011 100° East 232 267 16,500 1,403 Climbing Denver Center
Sun 02:43:55 PM 40.4989 -106.5172 100° East 232 267 18,400 1,210 Climbing Denver Center
Sun 02:44:57 PM 40.4875 -106.4264 99° East 247 284 19,000 290 Climbing Denver Center
Sun 02:45:59 PM 40.4733 -106.3214 100° East 284 327 19,000  Level Denver Center
Sun 02:46:00 PM 40.5167 -106.5795 90° East  Level FlightAware Approximate
Sun 02:47:01 PM 40.4597 -106.2103 99° East 303 349 19,000  Level Denver Center
Sun 02:48:03 PM 40.4411 -106.0736 100° East 312 359 19,000  Level Denver Center
Sun 02:49:05 PM 40.4258 -105.9603 100° East 315 362 19,000  Level Denver Center
Sun 02:50:07 PM 40.4122 -105.8486 99° East 313 360 19,000  Level Denver Center
Sun 02:51:09 PM 40.3975 -105.7350 100° East 314 361 19,000 48 Level Denver Center
Sun 02:52:11 PM 40.3817 -105.6244 101° East 312 359 19,100  Climbing Denver Center
Sun 02:53:13 PM 40.3656 -105.5092 100° East 316 364 19,000  Descending Denver Center
Sun 02:54:15 PM 40.3350 -105.4103 112° Southeast 261 300 19,100 -864 Climbing Denver Center
Sun 02:55:18 PM 40.2722 -105.3619 150° Southeast 241 277 17,200 -2,304 Descending Denver Center
Sun 02:56:20 PM 40.2217 -105.2908 133° Southeast 265 305 14,300 -2,661 Descending Denver Center
Sun 02:57:22 PM 40.1708 -105.2258 136° Southeast 237 273 11,700 -2,177 Descending Denver Center
Sun 02:58:24 PM 40.1194 -105.1775 144° Southeast 227 261 9,800 -1,210 Descending Denver Center
Sun 02:59:26 PM 40.0556 -105.1425 157° South 230 265 9,200 -732 Descending Denver Center
Sun 03:00:27 PM 39.9908 -105.1200 165° South 239 275 8,300 -976 Descending Denver Center
Sun 03:01:29 PM 39.9317 -105.0886 158° South 214 246 7,200 -1,016 Descending Denver Center
Sun 03:02:31 PM 39.8953 -105.0750 164° South 159 183 6,200 -768 Descending Denver Center
Sun 03:03:34 PM 39.9047 -105.1083 290° West 103 119 5,600 -571 Descending Denver Center
Sun 03:05:00 PM 39.9000 -105.1167 300° West  Level FlightAware Approximate
Sun 03:12:00 PM 39.9088 -105.1172 300° West  Level Estimated
Sun 03:13:00 PM 39.9088 -105.1172 300° West  Level Estimated
Sun 03:14:00 PM 39.9088 -105.1172 300° West  Level Estimated

Login

Don't have an account? Register now (free) for customized features, flight alerts, and more!